createdAt,value
2022-11-16T00:02:14.135Z,100.00
2022-11-16T00:05:40.153Z,100.00
2022-11-16T00:09:24.299Z,100.00
2022-11-16T00:12:51.303Z,100.00
2022-11-16T00:16:17.828Z,100.00
2022-11-16T00:19:43.944Z,100.00
2022-11-16T00:23:09.908Z,100.00
2022-11-16T00:26:36.531Z,100.00
2022-11-16T00:30:02.915Z,100.00
2022-11-16T00:33:29.122Z,100.00
2022-11-16T00:36:55.064Z,100.00
2022-11-16T00:39:23.309Z,86.97
2022-11-16T00:41:51.138Z,87.83
2022-11-16T00:44:19.795Z,88.22
2022-11-16T00:46:47.210Z,88.82
2022-11-16T00:49:14.457Z,88.85
2022-11-16T00:51:41.764Z,89.27
2022-11-16T00:54:11.077Z,89.13
2022-11-16T00:56:39.520Z,88.72
2022-11-16T00:59:07.418Z,89.09
2022-11-16T01:01:34.866Z,89.44
2022-11-16T01:04:02.557Z,89.92
2022-11-16T01:06:29.778Z,90.32
2022-11-16T01:08:57.047Z,90.50
2022-11-16T01:11:43.197Z,90.96
2022-11-16T01:14:12.199Z,91.14
2022-11-16T01:16:39.529Z,91.41
2022-11-16T01:19:07.926Z,91.42
2022-11-16T01:21:35.489Z,90.92
2022-11-16T01:24:02.772Z,89.75
2022-11-16T01:26:30.356Z,90.36
2022-11-16T01:28:59.850Z,90.57
2022-11-16T01:31:31.285Z,91.17
2022-11-16T01:34:00.721Z,91.57
2022-11-16T01:36:31.896Z,91.78
2022-11-16T01:39:01.233Z,91.78
2022-11-16T01:41:33.421Z,91.42
2022-11-16T01:44:07.734Z,91.18
2022-11-16T01:46:45.223Z,90.84
2022-11-16T01:49:19.840Z,90.60
2022-11-16T01:51:55.811Z,88.95
2022-11-16T01:54:24.867Z,88.45
2022-11-16T01:56:57.338Z,86.93
2022-11-16T01:59:39.474Z,86.59
2022-11-16T02:02:12.322Z,86.53
2022-11-16T02:04:39.735Z,85.55
2022-11-16T02:07:21.975Z,85.99
2022-11-16T02:10:13.696Z,85.75
2022-11-16T02:13:02.911Z,85.55
2022-11-16T02:16:11.728Z,85.67
2022-11-16T02:18:43.264Z,85.97
2022-11-16T02:21:21.484Z,85.61
2022-11-16T02:24:20.329Z,85.58
2022-11-16T02:27:29.361Z,85.00
2022-11-16T02:29:57.787Z,84.81
2022-11-16T02:32:37.036Z,84.70
2022-11-16T02:35:17.145Z,84.67
2022-11-16T02:38:05.340Z,85.21
2022-11-16T02:40:36.067Z,84.87
2022-11-16T02:43:13.832Z,85.50
2022-11-16T02:45:44.807Z,85.44
2022-11-16T02:48:18.126Z,84.29
2022-11-16T02:50:47.103Z,84.24
2022-11-16T02:53:15.534Z,84.83
2022-11-16T02:55:42.994Z,84.94
2022-11-16T02:58:14.988Z,85.23
2022-11-16T03:01:01.433Z,85.03
2022-11-16T03:03:37.885Z,84.86
2022-11-16T03:06:08.878Z,84.54
2022-11-16T03:08:51.068Z,84.89
2022-11-16T03:11:37.394Z,84.54
2022-11-16T03:14:17.409Z,84.17
2022-11-16T03:16:49.148Z,83.90
2022-11-16T03:19:24.040Z,83.85
2022-11-16T03:22:09.169Z,84.14
2022-11-16T03:24:39.178Z,84.15
2022-11-16T03:27:39.301Z,84.14
2022-11-16T03:30:15.142Z,83.76
2022-11-16T03:33:00.385Z,83.90
2022-11-16T03:35:41.346Z,83.75
2022-11-16T03:38:11.243Z,83.21
2022-11-16T03:40:46.420Z,83.25
2022-11-16T03:43:18.455Z,83.12
2022-11-16T03:45:46.933Z,82.72
2022-11-16T03:48:14.470Z,82.52
2022-11-16T03:50:43.332Z,82.15
2022-11-16T03:53:10.938Z,82.12
2022-11-16T03:55:39.545Z,81.58
2022-11-16T03:58:06.836Z,81.07
2022-11-16T04:00:34.527Z,81.33
2022-11-16T04:03:07.835Z,81.53
2022-11-16T04:05:53.604Z,81.42
2022-11-16T04:08:39.415Z,81.30
2022-11-16T04:11:27.809Z,81.25
2022-11-16T04:14:13.340Z,81.19
2022-11-16T04:17:01.012Z,81.53
2022-11-16T04:19:48.360Z,80.92
2022-11-16T04:22:42.690Z,80.54
2022-11-16T04:25:19.442Z,80.60
2022-11-16T04:28:06.079Z,80.83
2022-11-16T04:30:53.881Z,80.61
2022-11-16T04:33:41.323Z,80.55
2022-11-16T04:36:27.582Z,80.66
2022-11-16T04:38:55.651Z,80.69
2022-11-16T04:41:43.177Z,80.61
2022-11-16T04:44:10.872Z,80.64
2022-11-16T04:46:57.539Z,80.62
2022-11-16T04:49:24.705Z,80.59
2022-11-16T04:51:52.963Z,80.97
2022-11-16T04:54:20.602Z,80.82
2022-11-16T04:56:47.930Z,80.97
2022-11-16T04:59:15.271Z,81.22
2022-11-16T05:02:01.343Z,81.08
2022-11-16T05:04:29.925Z,81.68
2022-11-16T05:06:58.771Z,80.79
2022-11-16T05:09:26.281Z,80.82
2022-11-16T05:11:53.854Z,80.48
2022-11-16T05:14:21.448Z,80.01
2022-11-16T05:16:49.224Z,80.15
2022-11-16T05:19:34.835Z,79.68
2022-11-16T05:22:02.132Z,79.84
2022-11-16T05:24:36.905Z,80.04
2022-11-16T05:27:12.991Z,79.06
2022-11-16T05:29:41.873Z,78.65
2022-11-16T05:32:11.400Z,78.47
2022-11-16T05:34:39.744Z,78.53
2022-11-16T05:37:08.121Z,78.43
2022-11-16T05:39:35.944Z,78.23
2022-11-16T05:42:06.399Z,78.27
2022-11-16T05:44:34.188Z,77.78
2022-11-16T05:47:01.532Z,77.87
2022-11-16T05:49:28.996Z,77.53
2022-11-16T05:51:56.273Z,77.20
2022-11-16T05:54:26.933Z,77.05
2022-11-16T05:56:55.263Z,76.97
2022-11-16T05:59:24.472Z,76.69
2022-11-16T06:01:55.088Z,76.50
2022-11-16T06:04:24.786Z,76.49
2022-11-16T06:06:54.404Z,76.29
2022-11-16T06:09:25.471Z,76.54
2022-11-16T06:11:54.963Z,76.55
2022-11-16T06:14:25.264Z,76.54
2022-11-16T06:16:53.303Z,76.20
2022-11-16T06:19:20.740Z,76.05
2022-11-16T06:21:48.562Z,75.87
2022-11-16T06:24:19.401Z,75.72
2022-11-16T06:26:47.353Z,75.76
2022-11-16T06:29:14.741Z,75.67
2022-11-16T06:31:42.335Z,75.34
2022-11-16T06:34:09.875Z,75.05
2022-11-16T06:36:37.169Z,74.92
2022-11-16T06:39:04.680Z,74.51
2022-11-16T06:41:41.116Z,74.32
2022-11-16T06:44:10.229Z,74.10
2022-11-16T06:46:44.380Z,74.04
2022-11-16T06:49:11.782Z,73.58
2022-11-16T06:51:39.275Z,73.31
2022-11-16T06:54:07.984Z,73.37
2022-11-16T06:56:36.281Z,73.15
2022-11-16T06:59:03.700Z,73.14
2022-11-16T07:01:32.143Z,73.53
2022-11-16T07:04:04.841Z,72.93
2022-11-16T07:06:33.165Z,72.95
2022-11-16T07:09:00.599Z,73.10
2022-11-16T07:11:31.327Z,72.85
2022-11-16T07:13:59.980Z,72.54
2022-11-16T07:16:28.321Z,72.02
2022-11-16T07:18:59.414Z,72.21
2022-11-16T07:21:29.948Z,71.82
2022-11-16T07:23:59.404Z,71.19
2022-11-16T07:26:27.157Z,70.68
2022-11-16T07:29:00.482Z,70.57
2022-11-16T07:31:30.938Z,70.43
2022-11-16T07:34:17.285Z,69.50
2022-11-16T07:36:50.543Z,69.22
2022-11-16T07:39:17.997Z,69.45
2022-11-16T07:41:47.068Z,69.26
2022-11-16T07:44:49.564Z,68.96
2022-11-16T07:47:17.093Z,68.79
2022-11-16T07:49:44.524Z,69.28
2022-11-16T07:52:16.073Z,69.24
2022-11-16T07:54:54.332Z,69.34
2022-11-16T07:57:26.693Z,68.39
2022-11-16T07:59:56.092Z,68.35
2022-11-16T08:02:27.999Z,67.76
2022-11-16T08:04:56.290Z,67.06
2022-11-16T08:07:27.129Z,67.43
2022-11-16T08:09:56.833Z,67.27
2022-11-16T08:12:27.496Z,67.03
2022-11-16T08:14:55.602Z,67.08
2022-11-16T08:17:23.843Z,66.07
2022-11-16T08:19:51.937Z,66.10
2022-11-16T08:22:19.749Z,65.75
2022-11-16T08:24:47.258Z,65.67
2022-11-16T08:27:18.483Z,65.53
2022-11-16T08:29:50.778Z,65.66
2022-11-16T08:32:19.457Z,65.72
2022-11-16T08:34:46.943Z,65.10
2022-11-16T08:37:14.487Z,64.28
2022-11-16T08:39:45.818Z,63.47
2022-11-16T08:42:15.517Z,62.13
2022-11-16T08:44:47.153Z,60.77
2022-11-16T08:47:16.505Z,60.99
2022-11-16T08:49:55.524Z,61.38
2022-11-16T08:52:24.967Z,61.63
2022-11-16T08:54:53.838Z,61.26
2022-11-16T08:57:21.663Z,59.36
2022-11-16T08:59:53.841Z,58.47
2022-11-16T09:02:25.846Z,57.96
2022-11-16T09:04:53.612Z,57.64
2022-11-16T09:07:21.994Z,57.01
2022-11-16T09:09:49.507Z,57.58
2022-11-16T09:12:17.135Z,57.79
2022-11-16T09:14:44.859Z,56.54
2022-11-16T09:17:12.795Z,55.94
2022-11-16T09:19:40.173Z,55.94
2022-11-16T09:22:07.586Z,55.27
2022-11-16T09:24:35.626Z,56.00
2022-11-16T09:27:04.317Z,54.74
2022-11-16T09:29:32.084Z,56.39
2022-11-16T09:31:59.698Z,55.29
2022-11-16T09:34:27.055Z,56.15
2022-11-16T09:36:54.511Z,55.41
2022-11-16T09:39:37.093Z,55.24
2022-11-16T09:42:16.320Z,54.95
2022-11-16T09:45:12.619Z,54.97
2022-11-16T09:47:51.019Z,54.34
2022-11-16T09:50:48.631Z,54.92
2022-11-16T09:53:28.071Z,53.37
2022-11-16T09:56:01.520Z,52.24
2022-11-16T09:58:45.384Z,51.29
2022-11-16T10:01:27.778Z,51.33
2022-11-16T10:04:03.575Z,51.22
2022-11-16T10:07:03.509Z,51.10
2022-11-16T10:09:31.152Z,50.19
2022-11-16T10:12:20.009Z,49.96
2022-11-16T10:15:05.128Z,47.61
2022-11-16T10:17:54.588Z,46.49
2022-11-16T10:20:59.710Z,48.53
2022-11-16T10:24:02.072Z,48.48
2022-11-16T10:27:02.395Z,48.14
2022-11-16T10:29:47.837Z,47.49
2022-11-16T10:32:33.291Z,48.72
2022-11-16T10:35:02.171Z,48.44
2022-11-16T10:37:32.676Z,48.49
2022-11-16T10:40:02.783Z,47.52
2022-11-16T10:42:39.411Z,48.29
2022-11-16T10:45:52.299Z,47.88
2022-11-16T10:48:37.296Z,46.72
2022-11-16T10:51:05.883Z,46.91
2022-11-16T10:53:37.019Z,47.29
2022-11-16T10:56:20.078Z,45.20
2022-11-16T10:59:06.013Z,45.34
2022-11-16T11:01:45.167Z,45.50
2022-11-16T11:04:25.129Z,45.99
2022-11-16T11:07:02.349Z,45.69
2022-11-16T11:09:35.008Z,45.83
2022-11-16T11:12:49.882Z,44.87
2022-11-16T11:15:28.834Z,45.01
2022-11-16T11:18:23.906Z,46.34
2022-11-16T11:21:17.601Z,45.25
2022-11-16T11:23:53.448Z,45.62
2022-11-16T11:26:39.028Z,46.03
2022-11-16T11:29:32.849Z,45.43
2022-11-16T11:32:15.968Z,45.45
2022-11-16T11:34:51.957Z,46.10
2022-11-16T11:37:20.804Z,45.15
2022-11-16T11:39:48.284Z,44.06
2022-11-16T11:42:15.763Z,43.92
2022-11-16T11:45:08.547Z,44.28
2022-11-16T11:48:00.373Z,44.81
2022-11-16T11:50:39.372Z,44.69
2022-11-16T11:53:38.818Z,46.01
2022-11-16T11:56:06.790Z,46.65
2022-11-16T11:58:37.608Z,46.56
2022-11-16T12:01:35.391Z,45.47
2022-11-16T12:04:34.741Z,45.16
2022-11-16T12:07:05.016Z,45.76
2022-11-16T12:09:32.266Z,44.62
2022-11-16T12:12:32.804Z,44.66
2022-11-16T12:15:18.261Z,45.94
2022-11-16T12:18:22.237Z,46.83
2022-11-16T12:21:13.443Z,46.99
2022-11-16T12:24:08.261Z,47.73
2022-11-16T12:26:48.487Z,48.90
2022-11-16T12:29:16.922Z,48.88
2022-11-16T12:32:09.469Z,49.91
2022-11-16T12:35:14.792Z,50.25
2022-11-16T12:37:58.898Z,50.33
2022-11-16T12:40:50.408Z,51.30
2022-11-16T12:43:56.745Z,51.51
2022-11-16T12:46:33.906Z,51.43
2022-11-16T12:49:44.824Z,52.03
2022-11-16T12:52:43.671Z,52.37
2022-11-16T12:55:26.285Z,52.35
2022-11-16T12:58:19.866Z,52.55
2022-11-16T13:00:53.703Z,52.86
2022-11-16T13:03:32.376Z,53.55
2022-11-16T13:06:08.232Z,53.96
2022-11-16T13:09:02.643Z,53.66
2022-11-16T13:11:37.283Z,54.09
2022-11-16T13:14:10.635Z,53.87
2022-11-16T13:16:38.137Z,53.97
2022-11-16T13:19:10.526Z,53.52
2022-11-16T13:21:56.669Z,54.52
2022-11-16T13:24:52.687Z,55.61
2022-11-16T13:27:35.523Z,55.08
2022-11-16T13:30:06.039Z,55.54
2022-11-16T13:32:39.872Z,55.57
2022-11-16T13:35:13.851Z,55.32
2022-11-16T13:37:42.821Z,56.58
2022-11-16T13:40:21.181Z,57.21
2022-11-16T13:43:15.917Z,56.93
2022-11-16T13:45:52.303Z,56.80
2022-11-16T13:48:28.507Z,56.73
2022-11-16T13:50:58.938Z,56.84
2022-11-16T13:54:43.162Z,56.08
2022-11-16T13:56:52.029Z,55.72
2022-11-16T13:59:26.909Z,56.37
2022-11-16T14:02:03.197Z,55.26
2022-11-16T14:05:10.089Z,56.03
2022-11-16T14:07:45.051Z,55.18
2022-11-16T14:10:33.514Z,55.93
2022-11-16T14:13:06.932Z,55.58
2022-11-16T14:15:38.909Z,56.16
2022-11-16T14:18:09.490Z,56.94
2022-11-16T14:20:45.600Z,58.11
2022-11-16T14:23:46.706Z,60.05
2022-11-16T14:26:28.278Z,61.01
2022-11-16T14:29:04.742Z,61.84
2022-11-16T14:32:12.282Z,64.53
2022-11-16T14:34:44.524Z,64.62
2022-11-16T14:37:29.592Z,65.87
2022-11-16T14:40:23.501Z,67.49
2022-11-16T14:43:16.034Z,67.00
2022-11-16T14:45:57.122Z,68.46
2022-11-16T14:48:28.737Z,69.57
2022-11-16T14:51:10.505Z,69.91
2022-11-16T14:53:42.415Z,70.73
2022-11-16T14:56:16.742Z,72.95
2022-11-16T14:58:56.890Z,72.29
2022-11-16T15:01:30.557Z,70.75
2022-11-16T15:04:02.740Z,72.05
2022-11-16T15:06:36.317Z,73.61
2022-11-16T15:09:05.704Z,74.83
2022-11-16T15:12:02.165Z,75.19
2022-11-16T15:14:33.993Z,70.39
2022-11-16T15:17:01.413Z,70.57
2022-11-16T15:19:32.244Z,69.71
2022-11-16T15:22:01.838Z,68.74
2022-11-16T15:24:38.928Z,68.17
2022-11-16T15:27:09.122Z,67.50
2022-11-16T15:29:36.930Z,68.57
2022-11-16T15:32:04.692Z,68.86
2022-11-16T15:34:32.741Z,68.57
2022-11-16T15:37:01.130Z,69.07
2022-11-16T15:39:35.163Z,67.81
2022-11-16T15:42:04.197Z,66.99
2022-11-16T15:44:33.092Z,66.68
2022-11-16T15:47:02.730Z,66.79
2022-11-16T15:49:37.551Z,68.70
2022-11-16T15:52:05.589Z,67.07
2022-11-16T15:54:55.200Z,68.29
2022-11-16T15:57:24.322Z,68.15
2022-11-16T15:59:58.893Z,69.73
2022-11-16T16:02:29.092Z,68.42
2022-11-16T16:04:56.712Z,68.53
2022-11-16T16:07:40.442Z,70.18
2022-11-16T16:10:28.422Z,68.16
2022-11-16T16:12:57.647Z,67.71
2022-11-16T16:15:36.950Z,68.64
2022-11-16T16:18:36.953Z,69.41
2022-11-16T16:21:04.463Z,71.24
2022-11-16T16:23:32.040Z,71.08
2022-11-16T16:26:03.872Z,71.68
2022-11-16T16:28:31.205Z,72.68
2022-11-16T16:30:58.531Z,71.57
2022-11-16T16:33:28.909Z,72.03
2022-11-16T16:35:56.253Z,73.23
2022-11-16T16:38:23.805Z,74.09
2022-11-16T16:40:51.170Z,73.41
2022-11-16T16:43:19.019Z,76.03
2022-11-16T16:45:46.408Z,77.04
2022-11-16T16:48:13.847Z,75.47
2022-11-16T16:50:41.200Z,76.20
2022-11-16T16:53:12.525Z,78.35
2022-11-16T16:55:40.115Z,78.15
2022-11-16T16:58:07.670Z,78.16
2022-11-16T17:00:35.098Z,81.45
2022-11-16T17:03:04.058Z,82.16
2022-11-16T17:05:34.214Z,83.16
2022-11-16T17:08:02.043Z,85.04
2022-11-16T17:10:29.566Z,85.86
2022-11-16T17:12:57.705Z,87.25
2022-11-16T17:15:26.062Z,87.39
2022-11-16T17:17:53.405Z,86.64
2022-11-16T17:20:20.864Z,88.84
2022-11-16T17:22:48.201Z,91.43
2022-11-16T17:25:15.677Z,92.32
2022-11-16T17:27:42.936Z,89.51
2022-11-16T17:30:10.934Z,87.71
2022-11-16T17:32:38.251Z,89.96
2022-11-16T17:35:05.908Z,91.20
2022-11-16T17:37:33.313Z,90.95
2022-11-16T17:40:00.656Z,91.85
2022-11-16T17:42:27.970Z,92.13
2022-11-16T17:44:55.771Z,92.89
2022-11-16T17:47:23.181Z,93.92
2022-11-16T17:49:50.438Z,94.20
2022-11-16T17:52:17.783Z,94.02
2022-11-16T17:54:45.079Z,93.77
2022-11-16T17:57:12.342Z,94.13
2022-11-16T17:59:41.550Z,93.73
2022-11-16T18:02:11.564Z,94.27
2022-11-16T18:04:38.937Z,92.80
2022-11-16T18:07:06.417Z,93.33
2022-11-16T18:09:33.781Z,92.92
2022-11-16T18:12:01.155Z,93.39
2022-11-16T18:14:28.641Z,94.70
2022-11-16T18:17:00.331Z,95.69
2022-11-16T18:19:27.639Z,94.47
2022-11-16T18:21:55.074Z,94.72
2022-11-16T18:24:22.440Z,93.40
2022-11-16T18:26:50.531Z,92.50
2022-11-16T18:29:19.486Z,92.95
2022-11-16T18:31:46.910Z,93.26
2022-11-16T18:34:17.022Z,93.47
2022-11-16T18:36:44.602Z,93.55
2022-11-16T18:39:12.020Z,93.63
2022-11-16T18:41:48.559Z,94.36
2022-11-16T18:44:19.382Z,94.60
2022-11-16T18:46:48.470Z,94.92
2022-11-16T18:49:16.187Z,93.64
2022-11-16T18:51:43.655Z,92.93
2022-11-16T18:54:11.016Z,92.56
2022-11-16T18:56:38.628Z,93.75
2022-11-16T18:59:06.060Z,94.86
2022-11-16T19:01:33.528Z,95.58
2022-11-16T19:04:01.075Z,95.53
2022-11-16T19:06:32.219Z,94.24
2022-11-16T19:09:00.231Z,93.74
2022-11-16T19:11:28.813Z,92.62
2022-11-16T19:14:04.062Z,93.09
2022-11-16T19:16:31.787Z,94.83
2022-11-16T19:18:59.250Z,94.38
2022-11-16T19:21:26.637Z,93.33
2022-11-16T19:23:55.730Z,94.92
2022-11-16T19:26:26.129Z,95.85
2022-11-16T19:28:54.185Z,96.46
2022-11-16T19:31:25.930Z,96.00
2022-11-16T19:33:57.383Z,94.74
2022-11-16T19:36:26.066Z,93.46
2022-11-16T19:38:53.821Z,93.22
2022-11-16T19:41:22.809Z,93.15
2022-11-16T19:44:01.929Z,94.78
2022-11-16T19:46:32.206Z,93.21
2022-11-16T19:49:00.660Z,91.50
2022-11-16T19:51:30.276Z,90.34
2022-11-16T19:54:00.410Z,90.71
2022-11-16T19:56:28.336Z,90.69
2022-11-16T19:58:55.851Z,89.80
2022-11-16T20:01:29.710Z,90.06
2022-11-16T20:03:59.345Z,90.42
2022-11-16T20:06:31.743Z,90.80
2022-11-16T20:09:04.281Z,89.21
2022-11-16T20:11:34.307Z,87.78
2022-11-16T20:14:06.057Z,87.56
2022-11-16T20:16:40.747Z,88.75
2022-11-16T20:19:09.542Z,88.59
2022-11-16T20:21:42.259Z,88.30
2022-11-16T20:24:15.391Z,87.85
2022-11-16T20:26:48.303Z,86.82
2022-11-16T20:29:17.183Z,87.37
2022-11-16T20:31:46.315Z,86.77
2022-11-16T20:34:18.758Z,85.92
2022-11-16T20:36:48.009Z,86.47
2022-11-16T20:39:17.093Z,86.18
2022-11-16T20:41:48.263Z,86.46
2022-11-16T20:44:24.000Z,85.91
2022-11-16T20:46:52.941Z,84.95
2022-11-16T20:49:22.809Z,86.21
2022-11-16T20:51:51.953Z,85.55
2022-11-16T20:54:19.410Z,85.34
2022-11-16T20:56:48.638Z,83.86
2022-11-16T20:59:16.733Z,83.16
2022-11-16T21:01:47.982Z,83.00
2022-11-16T21:04:15.812Z,84.20
2022-11-16T21:06:44.877Z,84.57
2022-11-16T21:09:15.769Z,84.83
2022-11-16T21:12:01.982Z,84.88
2022-11-16T21:14:29.392Z,83.21
2022-11-16T21:16:56.777Z,81.94
2022-11-16T21:19:24.076Z,79.99
2022-11-16T21:21:51.517Z,80.43
2022-11-16T21:24:18.939Z,80.59
2022-11-16T21:26:46.265Z,80.81
2022-11-16T21:29:13.516Z,78.89
2022-11-16T21:31:40.831Z,78.24
2022-11-16T21:34:08.154Z,79.61
2022-11-16T21:36:36.391Z,79.49
2022-11-16T21:39:03.982Z,81.26
2022-11-16T21:41:32.007Z,82.71
2022-11-16T21:43:59.436Z,82.73
2022-11-16T21:46:27.437Z,77.85
2022-11-16T21:48:56.943Z,75.96
2022-11-16T21:51:26.604Z,75.91
2022-11-16T21:53:54.515Z,75.11
2022-11-16T21:56:24.138Z,73.97
2022-11-16T21:58:53.268Z,72.65
2022-11-16T22:01:21.683Z,73.42
2022-11-16T22:04:09.277Z,75.20
2022-11-16T22:06:55.266Z,73.11
2022-11-16T22:09:23.448Z,71.75
2022-11-16T22:11:50.801Z,71.26
2022-11-16T22:14:18.265Z,70.45
2022-11-16T22:16:46.794Z,69.95
2022-11-16T22:19:14.069Z,68.81
2022-11-16T22:21:41.357Z,68.57
2022-11-16T22:24:09.029Z,68.58
2022-11-16T22:26:38.235Z,68.93
2022-11-16T22:29:05.536Z,67.23
2022-11-16T22:31:34.136Z,66.45
2022-11-16T22:34:01.444Z,65.82
2022-11-16T22:36:28.869Z,65.76
2022-11-16T22:38:57.337Z,65.68
2022-11-16T22:41:24.794Z,65.38
2022-11-16T22:43:52.150Z,65.16
2022-11-16T22:46:19.462Z,64.74
2022-11-16T22:48:48.075Z,64.67
2022-11-16T22:51:31.562Z,64.70
2022-11-16T22:54:04.286Z,64.52
2022-11-16T22:56:33.439Z,64.91
2022-11-16T22:59:02.681Z,64.89
2022-11-16T23:01:32.173Z,65.82
2022-11-16T23:03:59.483Z,65.95
2022-11-16T23:06:28.001Z,65.58
2022-11-16T23:08:55.636Z,65.46
2022-11-16T23:11:43.708Z,66.36
2022-11-16T23:14:32.344Z,66.85
2022-11-16T23:17:00.033Z,66.58
2022-11-16T23:19:46.465Z,66.27
2022-11-16T23:22:39.897Z,65.91
2022-11-16T23:25:28.440Z,65.15
2022-11-16T23:28:01.659Z,66.17
2022-11-16T23:30:29.382Z,66.12
2022-11-16T23:32:56.797Z,65.42
2022-11-16T23:35:24.101Z,66.05
2022-11-16T23:37:59.402Z,66.29
2022-11-16T23:40:35.506Z,66.56
2022-11-16T23:43:21.679Z,66.53
2022-11-16T23:45:49.734Z,66.55
2022-11-16T23:48:19.356Z,66.51
2022-11-16T23:50:46.741Z,67.16
2022-11-16T23:53:14.541Z,68.49
2022-11-16T23:55:42.006Z,70.54
2022-11-16T23:58:14.224Z,73.58
